createdAt,value
2018-06-29T00:02:06.628Z,15.30
2018-06-29T00:04:34.829Z,15.30
2018-06-29T00:07:03.057Z,15.30
2018-06-29T00:09:31.289Z,15.30
2018-06-29T00:11:59.497Z,15.30
2018-06-29T00:14:27.781Z,15.20
2018-06-29T00:16:56.074Z,15.20
2018-06-29T00:19:24.354Z,15.20
2018-06-29T00:21:52.872Z,15.30
2018-06-29T00:24:21.073Z,15.30
2018-06-29T00:26:49.308Z,15.30
2018-06-29T00:29:17.525Z,15.30
2018-06-29T00:31:45.765Z,15.30
2018-06-29T00:34:14.059Z,15.20
2018-06-29T00:36:42.265Z,15.20
2018-06-29T00:39:10.472Z,15.20
2018-06-29T00:41:38.679Z,15.10
2018-06-29T00:44:06.949Z,15.20
2018-06-29T00:46:35.202Z,15.20
2018-06-29T00:49:03.513Z,15.20
2018-06-29T00:51:32.034Z,15.20
2018-06-29T00:54:00.217Z,15.20
2018-06-29T00:56:28.489Z,15.20
2018-06-29T00:58:56.727Z,15.20
2018-06-29T01:01:24.970Z,15.10
2018-06-29T01:03:53.200Z,15.10
2018-06-29T01:06:21.529Z,15.20
2018-06-29T01:08:49.765Z,15.10
2018-06-29T01:11:18.011Z,15.20
2018-06-29T01:13:46.238Z,15.20
2018-06-29T01:16:14.509Z,15.20
2018-06-29T01:18:42.761Z,15.20
2018-06-29T01:21:11.028Z,15.30
2018-06-29T01:23:39.264Z,15.20
2018-06-29T01:26:07.569Z,15.30
2018-06-29T01:28:35.854Z,15.20
2018-06-29T01:31:04.132Z,15.20
2018-06-29T01:33:32.428Z,15.20
2018-06-29T01:36:00.697Z,15.20
2018-06-29T01:38:28.944Z,15.20
2018-06-29T01:40:57.201Z,15.20
2018-06-29T01:43:25.398Z,15.20
2018-06-29T01:45:53.653Z,15.20
2018-06-29T01:48:21.929Z,15.20
2018-06-29T01:50:50.120Z,15.30
2018-06-29T01:53:18.346Z,15.30
2018-06-29T01:55:46.545Z,15.30
2018-06-29T01:58:14.774Z,15.30
2018-06-29T02:00:43.113Z,15.30
2018-06-29T02:03:11.313Z,15.20
2018-06-29T02:05:39.549Z,15.20
2018-06-29T02:08:07.780Z,15.30
2018-06-29T02:10:36.025Z,15.20
2018-06-29T02:13:04.289Z,15.30
2018-06-29T02:15:32.489Z,15.30
2018-06-29T02:18:00.825Z,15.30
2018-06-29T02:20:29.081Z,15.30
2018-06-29T02:22:57.356Z,15.30
2018-06-29T02:25:25.577Z,15.20
2018-06-29T02:27:53.769Z,15.20
2018-06-29T02:30:21.986Z,15.20
2018-06-29T02:32:50.222Z,15.20
2018-06-29T02:35:18.452Z,15.20
2018-06-29T02:37:46.681Z,15.20
2018-06-29T02:40:14.881Z,15.30
2018-06-29T02:42:43.176Z,15.30
2018-06-29T02:45:11.458Z,15.30
2018-06-29T02:47:39.697Z,15.30
2018-06-29T02:50:07.981Z,15.30
2018-06-29T02:52:36.199Z,15.30
2018-06-29T02:55:04.489Z,15.30
2018-06-29T02:57:32.772Z,15.30
2018-06-29T03:00:01.073Z,15.20
2018-06-29T03:02:29.330Z,15.20
2018-06-29T03:04:57.553Z,15.20
2018-06-29T03:07:25.805Z,15.20
2018-06-29T03:09:54.239Z,15.20
2018-06-29T03:12:22.473Z,15.10
2018-06-29T03:14:50.744Z,15.20
2018-06-29T03:17:18.974Z,15.10
2018-06-29T03:19:47.230Z,15.10
2018-06-29T03:22:15.613Z,15.10
2018-06-29T03:24:43.887Z,15.10
2018-06-29T03:27:12.105Z,15.10
2018-06-29T03:29:41.152Z,15.10
2018-06-29T03:32:09.526Z,15.10
2018-06-29T03:34:37.708Z,15.10
2018-06-29T03:37:06.120Z,15.10
2018-06-29T03:39:34.353Z,15.10
2018-06-29T03:44:30.548Z,15.10
2018-06-29T03:46:58.794Z,15.10
2018-06-29T03:49:27.112Z,15.00
2018-06-29T03:51:55.320Z,15.20
2018-06-29T03:54:23.524Z,15.10
2018-06-29T03:56:51.832Z,15.10
2018-06-29T03:59:20.017Z,15.10
2018-06-29T04:01:48.250Z,15.10
2018-06-29T04:04:16.474Z,15.10
2018-06-29T04:06:44.705Z,15.10
2018-06-29T04:09:12.929Z,15.10
2018-06-29T04:11:41.193Z,15.10
2018-06-29T04:16:37.986Z,15.10
2018-06-29T04:19:06.528Z,15.10
2018-06-29T04:21:35.073Z,15.20
2018-06-29T04:24:03.367Z,15.10
2018-06-29T04:26:32.167Z,15.10
2018-06-29T04:29:00.427Z,15.10
2018-06-29T04:31:28.811Z,15.10
2018-06-29T04:33:57.157Z,15.10
2018-06-29T04:36:25.517Z,15.10
2018-06-29T04:38:53.777Z,15.10
2018-06-29T04:41:22.049Z,15.10
2018-06-29T04:43:50.554Z,15.10
2018-06-29T04:46:18.901Z,15.20
2018-06-29T04:48:47.099Z,15.20
2018-06-29T04:51:15.394Z,15.20
2018-06-29T04:53:43.624Z,15.20
2018-06-29T04:56:11.845Z,15.10
2018-06-29T04:58:40.086Z,15.20
2018-06-29T05:01:08.317Z,15.20
2018-06-29T05:03:36.541Z,15.20
2018-06-29T05:06:04.878Z,15.20
2018-06-29T05:08:33.099Z,15.30
2018-06-29T05:11:01.387Z,15.30
2018-06-29T05:13:29.576Z,15.30
2018-06-29T05:15:57.848Z,15.30
2018-06-29T05:18:26.053Z,15.40
2018-06-29T05:20:54.294Z,15.30
2018-06-29T05:23:22.506Z,15.40
2018-06-29T05:25:50.698Z,15.40
2018-06-29T05:28:19.016Z,15.30
2018-06-29T05:30:47.289Z,15.30
2018-06-29T05:33:15.494Z,15.30
2018-06-29T05:35:43.768Z,15.40
2018-06-29T05:38:11.952Z,15.40
2018-06-29T05:40:40.231Z,15.40
2018-06-29T05:43:08.507Z,15.40
2018-06-29T05:45:36.681Z,15.40
2018-06-29T05:48:05.010Z,15.40
2018-06-29T05:50:33.325Z,15.40
2018-06-29T05:53:01.607Z,15.40
2018-06-29T05:55:29.836Z,15.40
2018-06-29T05:57:58.053Z,15.40
2018-06-29T06:00:26.389Z,15.50
2018-06-29T06:02:54.584Z,15.50
2018-06-29T06:05:22.812Z,15.60
2018-06-29T06:07:51.021Z,15.60
2018-06-29T06:10:19.261Z,15.60
2018-06-29T06:12:47.560Z,15.60
2018-06-29T06:15:15.749Z,15.70
2018-06-29T06:17:43.993Z,15.80
2018-06-29T06:20:14.657Z,15.80
2018-06-29T06:22:42.942Z,15.70
2018-06-29T06:25:11.282Z,15.70
2018-06-29T06:27:39.605Z,15.70
2018-06-29T06:30:07.969Z,15.70
2018-06-29T06:32:36.285Z,15.70
2018-06-29T06:35:05.031Z,15.70
2018-06-29T06:37:33.268Z,15.60
2018-06-29T06:40:01.481Z,15.70
2018-06-29T06:42:29.715Z,15.70
2018-06-29T06:44:57.966Z,15.80
2018-06-29T06:47:26.173Z,15.80
2018-06-29T06:49:54.453Z,15.90
2018-06-29T06:52:22.644Z,15.90
2018-06-29T06:54:50.865Z,15.90
2018-06-29T06:57:19.078Z,15.80
2018-06-29T06:59:47.244Z,15.80
2018-06-29T07:02:15.445Z,15.80
2018-06-29T07:04:43.713Z,15.90
2018-06-29T07:07:12.076Z,15.80
2018-06-29T07:09:40.287Z,15.80
2018-06-29T07:12:15.080Z,15.70
2018-06-29T07:14:43.291Z,15.70
2018-06-29T07:17:11.546Z,15.70
2018-06-29T07:19:39.756Z,15.80
2018-06-29T07:22:07.977Z,15.90
2018-06-29T07:24:36.315Z,16.00
2018-06-29T07:27:04.594Z,16.10
2018-06-29T07:29:32.816Z,16.10
2018-06-29T07:32:01.059Z,16.20
2018-06-29T07:34:29.305Z,16.00
2018-06-29T07:36:57.547Z,16.00
2018-06-29T07:39:25.809Z,16.10
2018-06-29T07:41:54.024Z,16.10
2018-06-29T07:44:22.230Z,16.00
2018-06-29T07:46:50.453Z,16.00
2018-06-29T07:49:18.693Z,16.00
2018-06-29T07:51:46.889Z,16.00
2018-06-29T07:54:15.149Z,16.00
2018-06-29T07:56:43.378Z,16.00
2018-06-29T07:59:11.953Z,16.10
2018-06-29T08:01:40.173Z,16.10
2018-06-29T08:04:08.384Z,16.20
2018-06-29T08:06:36.606Z,16.20
2018-06-29T08:09:07.864Z,16.20
2018-06-29T08:11:36.129Z,16.40
2018-06-29T08:14:04.349Z,16.50
2018-06-29T08:16:32.577Z,16.50
2018-06-29T08:19:00.770Z,16.50
2018-06-29T08:21:28.981Z,16.50
2018-06-29T08:23:57.258Z,16.50
2018-06-29T08:26:27.256Z,16.50
2018-06-29T08:28:56.222Z,16.60
2018-06-29T08:31:24.505Z,16.60
2018-06-29T08:33:52.952Z,16.70
2018-06-29T08:36:21.227Z,16.60
2018-06-29T08:38:49.451Z,16.60
2018-06-29T08:41:17.784Z,16.60
2018-06-29T08:43:46.017Z,16.70
2018-06-29T08:46:14.289Z,16.60
2018-06-29T08:48:42.494Z,16.70
2018-06-29T08:51:10.749Z,16.70
2018-06-29T08:53:39.074Z,16.80
2018-06-29T08:56:07.484Z,16.80
2018-06-29T08:58:35.743Z,16.90
2018-06-29T09:01:04.113Z,17.00
2018-06-29T09:03:32.388Z,17.00
2018-06-29T09:06:00.627Z,17.10
2018-06-29T09:08:28.881Z,17.30
2018-06-29T09:10:57.185Z,17.30
2018-06-29T09:13:25.405Z,17.30
2018-06-29T09:15:53.964Z,17.20
2018-06-29T09:18:22.173Z,17.00
2018-06-29T09:20:50.425Z,16.90
2018-06-29T09:23:18.666Z,17.00
2018-06-29T09:25:46.924Z,17.20
2018-06-29T09:28:15.233Z,17.40
2018-06-29T09:30:43.504Z,17.50
2018-06-29T09:33:11.721Z,17.60
2018-06-29T09:35:39.999Z,17.60
2018-06-29T09:38:08.254Z,17.50
2018-06-29T09:40:36.440Z,17.60
2018-06-29T09:43:04.789Z,17.40
2018-06-29T09:45:33.185Z,17.30
2018-06-29T09:48:01.550Z,17.30
2018-06-29T09:50:29.755Z,17.30
2018-06-29T09:52:57.977Z,17.40
2018-06-29T09:55:26.177Z,17.40
2018-06-29T09:57:54.453Z,17.50
2018-06-29T10:00:28.204Z,17.50
2018-06-29T10:02:57.463Z,17.60
2018-06-29T10:05:26.327Z,17.60
2018-06-29T10:07:54.545Z,17.70
2018-06-29T10:10:22.782Z,17.70
2018-06-29T10:12:51.016Z,17.90
2018-06-29T10:15:20.119Z,18.10
2018-06-29T10:17:49.299Z,18.30
2018-06-29T10:20:17.695Z,18.20
2018-06-29T10:22:45.913Z,17.80
2018-06-29T10:25:14.258Z,18.00
2018-06-29T10:27:42.572Z,18.20
2018-06-29T10:30:10.802Z,18.40
2018-06-29T10:32:39.017Z,18.50
2018-06-29T10:35:08.007Z,18.50
2018-06-29T10:37:36.189Z,18.50
2018-06-29T10:40:04.570Z,18.50
2018-06-29T10:42:32.822Z,18.40
2018-06-29T10:45:01.067Z,18.20
2018-06-29T10:49:57.321Z,18.30
2018-06-29T10:52:25.546Z,18.50
2018-06-29T10:54:53.860Z,18.80
2018-06-29T10:57:22.086Z,19.20
2018-06-29T10:59:50.301Z,19.50
2018-06-29T11:02:18.573Z,19.90
2018-06-29T11:04:46.851Z,20.20
2018-06-29T11:07:15.096Z,20.10
2018-06-29T11:09:43.298Z,20.00
2018-06-29T11:12:11.549Z,19.10
2018-06-29T11:14:39.717Z,18.80
2018-06-29T11:17:07.959Z,18.90
2018-06-29T11:19:36.229Z,19.20
2018-06-29T11:22:04.469Z,19.80
2018-06-29T11:24:32.842Z,20.00
2018-06-29T11:27:01.131Z,20.40
2018-06-29T11:29:29.353Z,20.50
2018-06-29T11:31:57.664Z,20.20
2018-06-29T11:34:25.904Z,20.00
2018-06-29T11:36:54.250Z,20.00
2018-06-29T11:39:22.473Z,20.10
2018-06-29T11:41:50.894Z,19.80
2018-06-29T11:44:19.185Z,19.60
2018-06-29T11:46:47.377Z,19.60
2018-06-29T11:49:15.686Z,19.80
2018-06-29T11:51:43.960Z,20.40
2018-06-29T11:54:12.154Z,20.70
2018-06-29T11:56:40.411Z,21.00
2018-06-29T11:59:08.667Z,21.40
2018-06-29T12:01:36.925Z,21.50
2018-06-29T12:04:05.178Z,21.50
2018-06-29T12:06:33.418Z,21.50
2018-06-29T12:09:01.706Z,20.80
2018-06-29T12:11:29.920Z,20.70
2018-06-29T12:13:58.158Z,20.90
2018-06-29T12:16:26.429Z,21.10
2018-06-29T12:18:54.643Z,21.20
2018-06-29T12:21:22.905Z,21.20
2018-06-29T12:23:51.161Z,21.30
2018-06-29T12:26:19.423Z,21.30
2018-06-29T12:28:47.672Z,21.50
2018-06-29T12:31:15.900Z,21.50
2018-06-29T12:33:44.240Z,21.50
2018-06-29T12:36:12.521Z,21.60
2018-06-29T12:38:40.854Z,21.60
2018-06-29T12:41:09.249Z,21.90
2018-06-29T12:43:37.545Z,22.20
2018-06-29T12:46:05.922Z,22.40
2018-06-29T12:48:34.164Z,22.80
2018-06-29T12:51:02.433Z,22.90
2018-06-29T12:53:30.746Z,23.20
2018-06-29T12:55:59.049Z,23.30
2018-06-29T12:58:27.247Z,23.70
2018-06-29T13:00:55.517Z,23.70
2018-06-29T13:03:23.780Z,23.40
2018-06-29T13:05:52.010Z,23.50
2018-06-29T13:08:20.257Z,23.70
2018-06-29T13:10:48.489Z,23.30
2018-06-29T13:13:16.685Z,23.40
2018-06-29T13:15:44.904Z,23.40
2018-06-29T13:18:13.098Z,23.70
2018-06-29T13:20:41.372Z,23.90
2018-06-29T13:23:09.616Z,24.20
2018-06-29T13:25:37.841Z,24.70
2018-06-29T13:28:06.199Z,25.10
2018-06-29T13:30:34.401Z,25.20
2018-06-29T13:33:02.649Z,25.20
2018-06-29T13:35:30.973Z,24.90
2018-06-29T13:37:59.168Z,25.00
2018-06-29T13:40:27.417Z,25.40
2018-06-29T13:42:55.593Z,25.60
2018-06-29T13:45:23.804Z,24.90
2018-06-29T13:47:52.073Z,24.60
2018-06-29T13:50:20.309Z,24.40
2018-06-29T13:52:48.553Z,24.50
2018-06-29T13:55:16.756Z,24.50
2018-06-29T13:57:44.994Z,24.10
2018-06-29T14:02:41.245Z,23.60
2018-06-29T14:05:09.662Z,23.90
2018-06-29T14:07:38.021Z,23.80
2018-06-29T14:10:06.293Z,24.10
2018-06-29T14:12:34.525Z,24.70
2018-06-29T14:15:02.767Z,24.60
2018-06-29T14:17:31.071Z,25.10
2018-06-29T14:19:59.284Z,25.20
2018-06-29T14:22:27.797Z,25.40
2018-06-29T14:24:56.141Z,25.50
2018-06-29T14:27:24.398Z,25.20
2018-06-29T14:29:52.878Z,25.20
2018-06-29T14:32:21.251Z,25.10
2018-06-29T14:34:49.558Z,24.80
2018-06-29T14:37:17.773Z,24.60
2018-06-29T14:39:45.998Z,24.90
2018-06-29T14:44:43.322Z,24.60
2018-06-29T14:47:11.584Z,24.60
2018-06-29T14:49:39.829Z,24.70
2018-06-29T14:52:08.056Z,24.60
2018-06-29T14:54:36.361Z,24.40
2018-06-29T14:57:04.741Z,24.30
2018-06-29T14:59:32.998Z,24.10
2018-06-29T15:02:01.233Z,24.10
2018-06-29T15:04:29.453Z,23.70
2018-06-29T15:06:57.838Z,23.40
2018-06-29T15:09:26.112Z,23.60
2018-06-29T15:11:54.384Z,23.90
2018-06-29T15:14:22.653Z,24.00
2018-06-29T15:16:50.910Z,24.10
2018-06-29T15:19:19.177Z,24.10
2018-06-29T15:21:47.462Z,24.00
2018-06-29T15:24:15.760Z,24.20
2018-06-29T15:26:44.022Z,24.10
2018-06-29T15:29:12.227Z,24.00
2018-06-29T15:31:40.485Z,24.00
2018-06-29T15:34:08.708Z,23.90
2018-06-29T15:36:36.932Z,23.90
2018-06-29T15:39:08.381Z,24.20
2018-06-29T15:41:36.713Z,24.30
2018-06-29T15:44:05.082Z,24.40
2018-06-29T15:46:33.519Z,24.30
2018-06-29T15:49:02.490Z,24.30
2018-06-29T15:51:30.813Z,24.20
2018-06-29T15:53:59.126Z,24.00
2018-06-29T15:56:27.373Z,23.90
2018-06-29T15:58:55.603Z,23.80
2018-06-29T16:01:23.885Z,23.60
2018-06-29T16:03:52.110Z,23.60
2018-06-29T16:06:20.389Z,23.60
2018-06-29T16:08:48.735Z,23.50
2018-06-29T16:11:16.974Z,23.40
2018-06-29T16:13:45.202Z,23.30
2018-06-29T16:16:13.474Z,23.30
2018-06-29T16:18:41.887Z,23.30
2018-06-29T16:21:10.444Z,23.30
2018-06-29T16:23:38.724Z,23.30
2018-06-29T16:26:07.040Z,23.30
2018-06-29T16:28:35.362Z,23.30
2018-06-29T16:31:03.662Z,23.20
2018-06-29T16:33:31.899Z,23.20
2018-06-29T16:36:00.195Z,23.10
2018-06-29T16:38:28.429Z,23.00
2018-06-29T16:40:56.742Z,23.00
2018-06-29T16:43:25.009Z,22.90
2018-06-29T16:45:53.322Z,22.80
2018-06-29T16:48:21.561Z,22.80
2018-06-29T16:50:49.818Z,22.80
2018-06-29T16:53:18.052Z,22.90
2018-06-29T16:55:46.369Z,22.80
2018-06-29T16:58:14.654Z,22.80
2018-06-29T17:00:42.914Z,22.80
2018-06-29T17:03:11.332Z,22.70
2018-06-29T17:05:39.685Z,22.60
2018-06-29T17:08:07.908Z,22.50
2018-06-29T17:10:36.132Z,22.50
2018-06-29T17:13:04.417Z,22.60
2018-06-29T17:15:32.665Z,22.50
2018-06-29T17:18:00.849Z,22.40
2018-06-29T17:20:29.109Z,22.30
2018-06-29T17:22:57.473Z,22.20
2018-06-29T17:25:25.601Z,22.20
2018-06-29T17:27:53.820Z,22.10
2018-06-29T17:30:22.019Z,21.90
2018-06-29T17:32:50.279Z,21.80
2018-06-29T17:35:18.553Z,21.80
2018-06-29T17:37:46.781Z,21.80
2018-06-29T17:40:15.090Z,21.80
2018-06-29T17:42:43.334Z,21.70
2018-06-29T17:45:11.557Z,21.70
2018-06-29T17:47:39.892Z,21.70
2018-06-29T17:50:08.169Z,21.80
2018-06-29T17:52:36.424Z,21.80
2018-06-29T17:55:04.875Z,21.70
2018-06-29T17:57:33.298Z,21.70
2018-06-29T18:00:01.613Z,21.60
2018-06-29T18:02:29.860Z,21.60
2018-06-29T18:04:58.117Z,21.60
2018-06-29T18:07:26.331Z,21.60
2018-06-29T18:09:54.714Z,21.60
2018-06-29T18:12:22.994Z,21.60
2018-06-29T18:14:51.223Z,21.60
2018-06-29T18:17:19.572Z,21.60
2018-06-29T18:19:47.801Z,21.60
2018-06-29T18:22:16.097Z,21.60
2018-06-29T18:24:44.366Z,21.60
2018-06-29T18:27:12.537Z,21.50
2018-06-29T18:29:41.407Z,21.50
2018-06-29T18:32:10.467Z,21.40
2018-06-29T18:34:38.762Z,21.40
2018-06-29T18:37:07.000Z,21.40
2018-06-29T18:39:35.194Z,21.40
2018-06-29T18:42:03.617Z,21.30
2018-06-29T18:44:31.810Z,21.20
2018-06-29T18:47:00.116Z,21.20
2018-06-29T18:49:28.450Z,21.10
2018-06-29T18:51:56.701Z,21.10
2018-06-29T18:54:24.974Z,21.10
2018-06-29T18:56:53.185Z,21.10
2018-06-29T18:59:21.549Z,21.10
2018-06-29T19:01:50.525Z,21.00
2018-06-29T19:04:18.733Z,21.00
2018-06-29T19:06:46.979Z,20.90
2018-06-29T19:09:15.191Z,20.90
2018-06-29T19:11:43.426Z,20.80
2018-06-29T19:14:11.651Z,20.80
2018-06-29T19:16:39.910Z,20.70
2018-06-29T19:19:08.173Z,20.70
2018-06-29T19:21:37.334Z,20.60
2018-06-29T19:24:05.628Z,20.60
2018-06-29T19:26:33.925Z,20.60
2018-06-29T19:29:02.145Z,20.60
2018-06-29T19:31:30.389Z,20.50
2018-06-29T19:33:58.697Z,20.40
2018-06-29T19:36:27.106Z,20.40
2018-06-29T19:38:55.488Z,20.40
2018-06-29T19:41:23.781Z,20.40
2018-06-29T19:43:52.393Z,20.40
2018-06-29T19:46:20.646Z,20.30
2018-06-29T19:48:48.910Z,20.30
2018-06-29T19:51:17.224Z,20.30
2018-06-29T19:53:45.446Z,20.30
2018-06-29T19:56:13.779Z,20.20
2018-06-29T19:58:42.019Z,20.20
2018-06-29T20:01:10.461Z,20.20
2018-06-29T20:03:39.115Z,20.20
2018-06-29T20:06:10.936Z,20.20
2018-06-29T20:08:39.328Z,20.20
2018-06-29T20:11:07.649Z,20.10
2018-06-29T20:13:35.965Z,20.10
2018-06-29T20:16:04.319Z,20.00
2018-06-29T20:18:32.533Z,20.00
2018-06-29T20:21:00.760Z,20.00
2018-06-29T20:23:29.037Z,19.90
2018-06-29T20:25:57.295Z,19.80
2018-06-29T20:28:25.536Z,19.80
2018-06-29T20:30:53.805Z,19.80
2018-06-29T20:33:22.081Z,19.70
2018-06-29T20:35:50.584Z,19.70
2018-06-29T20:38:18.997Z,19.70
2018-06-29T20:43:15.505Z,19.60
2018-06-29T20:45:43.822Z,19.60
2018-06-29T20:48:12.045Z,19.60
2018-06-29T20:50:40.307Z,19.60
2018-06-29T20:53:08.569Z,19.60
2018-06-29T20:55:38.636Z,19.60
2018-06-29T20:58:10.783Z,19.60
2018-06-29T21:00:42.319Z,19.60
2018-06-29T21:03:14.797Z,19.50
2018-06-29T21:05:43.393Z,19.60
2018-06-29T21:08:12.321Z,19.60
2018-06-29T21:10:40.978Z,19.60
2018-06-29T21:13:10.447Z,19.60
2018-06-29T21:15:38.746Z,19.60
2018-06-29T21:18:08.138Z,19.60
2018-06-29T21:20:36.402Z,19.60
2018-06-29T21:23:04.631Z,19.70
2018-06-29T21:25:32.922Z,19.70
2018-06-29T21:28:01.151Z,19.70
2018-06-29T21:30:29.420Z,19.70
2018-06-29T21:32:57.649Z,19.70
2018-06-29T21:35:25.882Z,19.60
2018-06-29T21:37:54.607Z,19.70
2018-06-29T21:40:22.837Z,19.60
2018-06-29T21:42:51.117Z,19.70
2018-06-29T21:45:19.383Z,19.60
2018-06-29T21:47:47.667Z,19.40
2018-06-29T21:50:15.923Z,19.30
2018-06-29T21:52:44.201Z,19.20
2018-06-29T21:55:12.450Z,19.10
2018-06-29T21:57:40.704Z,19.10
2018-06-29T22:00:11.410Z,19.00
2018-06-29T22:02:39.713Z,18.90
2018-06-29T22:05:08.118Z,18.80
2018-06-29T22:07:36.469Z,18.80
2018-06-29T22:10:05.320Z,18.80
2018-06-29T22:15:01.570Z,18.90
2018-06-29T22:17:30.045Z,18.90
2018-06-29T22:19:58.318Z,19.00
2018-06-29T22:22:26.530Z,18.90
2018-06-29T22:24:54.773Z,18.80
2018-06-29T22:27:23.021Z,18.70
2018-06-29T22:29:51.227Z,18.70
2018-06-29T22:32:19.475Z,18.70
2018-06-29T22:34:47.693Z,18.70
2018-06-29T22:37:15.953Z,18.80
2018-06-29T22:39:44.203Z,18.80
2018-06-29T22:42:12.465Z,18.90
2018-06-29T22:44:40.729Z,18.90
2018-06-29T22:47:08.937Z,18.90
2018-06-29T22:49:37.169Z,18.90
2018-06-29T22:52:05.422Z,18.90
2018-06-29T22:54:33.647Z,18.90
2018-06-29T22:57:01.884Z,18.90
2018-06-29T22:59:30.105Z,18.80
2018-06-29T23:01:58.411Z,18.80
2018-06-29T23:04:26.675Z,18.80
2018-06-29T23:06:54.865Z,18.80
2018-06-29T23:09:23.125Z,18.70
2018-06-29T23:11:51.438Z,18.70
2018-06-29T23:14:19.700Z,18.70
2018-06-29T23:16:47.934Z,18.70
2018-06-29T23:19:16.152Z,18.70
2018-06-29T23:21:44.390Z,18.70
2018-06-29T23:24:12.600Z,18.70
2018-06-29T23:26:40.835Z,18.70
2018-06-29T23:29:09.086Z,18.80
2018-06-29T23:31:37.338Z,18.80
2018-06-29T23:34:05.609Z,18.70
2018-06-29T23:36:33.828Z,18.60
2018-06-29T23:39:02.139Z,18.60
2018-06-29T23:41:30.413Z,18.60
2018-06-29T23:43:58.678Z,18.50
2018-06-29T23:46:27.065Z,18.60
2018-06-29T23:48:55.253Z,18.50
2018-06-29T23:51:23.476Z,18.50
2018-06-29T23:53:51.704Z,18.50
2018-06-29T23:56:19.938Z,18.50
2018-06-29T23:58:48.217Z,18.50
